Time;durP1;ratioP1;P1;durP2;ratioP2;P2;SDS_P1;SDS_P2;PMS_P1;PMS_P2;Temp;Humidity;BMP_temperature;BMP_pressure;BME280_temperature;BME280_humidity;BME280_pressure;Samples;Min_cycle;Max_cycle;Signal;HPM_P1;HPM_P2
2022/05/26 00:02:19;;;;;;;;;1.75;1.75;;;;;;;;5052645;28;8818;-75
2022/05/26 00:04:47;;;;;;;;;2.00;0.75;;;;;;;;5074219;28;8839;-76
2022/05/26 00:07:14;;;;;;;;;2.00;2.00;;;;;;;;5074691;28;8909;-75
2022/05/26 00:09:43;;;;;;;;;1.25;1.25;;;;;;;;5077580;28;8870;-74
2022/05/26 00:12:12;;;;;;;;;2.00;1.00;;;;;;;;5056216;28;8944;-75
2022/05/26 00:14:39;;;;;;;;;2.75;1.75;;;;;;;;5052001;28;8869;-74
2022/05/26 00:17:07;;;;;;;;;1.00;1.00;;;;;;;;5075179;28;8862;-74
2022/05/26 00:19:34;;;;;;;;;1.00;1.00;;;;;;;;5076935;28;8974;-75
2022/05/26 00:22:02;;;;;;;;;1.75;1.75;;;;;;;;5053854;28;8858;-75
2022/05/26 00:24:29;;;;;;;;;1.00;1.00;;;;;;;;5055854;28;9669;-75
2022/05/26 00:26:57;;;;;;;;;3.00;1.75;;;;;;;;5076783;28;8903;-74
2022/05/26 00:29:25;;;;;;;;;3.00;1.00;;;;;;;;5056754;28;8888;-75
2022/05/26 00:31:52;;;;;;;;;2.00;2.00;;;;;;;;5077565;28;8830;-75
2022/05/26 00:34:19;;;;;;;;;2.00;2.00;;;;;;;;5072553;28;8857;-74
2022/05/26 00:36:47;;;;;;;;;2.00;2.00;;;;;;;;5076927;28;8854;-74
2022/05/26 00:39:16;;;;;;;;;2.50;1.00;;;;;;;;5076282;28;8877;-75
2022/05/26 00:41:48;;;;;;;;;1.00;1.00;;;;;;;;5074047;28;8874;-74
2022/05/26 00:44:17;;;;;;;;;1.75;1.75;;;;;;;;5066661;28;8873;-75
2022/05/26 00:46:49;;;;;;;;;1.50;1.00;;;;;;;;5073728;28;8881;-74
2022/05/26 00:49:24;;;;;;;;;2.25;1.75;;;;;;;;5076025;28;8858;-74
2022/05/26 00:51:52;;;;;;;;;0.00;0.00;;;;;;;;5072339;28;8866;-75
2022/05/26 00:54:22;;;;;;;;;4.50;1.50;;;;;;;;5075431;28;8919;-75
2022/05/26 00:56:56;;;;;;;;;1.00;1.00;;;;;;;;5079253;28;9016;-77
2022/05/26 00:59:29;;;;;;;;;2.50;1.00;;;;;;;;5075652;28;8885;-74
2022/05/26 01:01:58;;;;;;;;;0.25;0.25;;;;;;;;5078224;28;8827;-78
2022/05/26 01:04:27;;;;;;;;;2.00;0.00;;;;;;;;5074658;28;8902;-74
2022/05/26 01:07:01;;;;;;;;;4.00;0.25;;;;;;;;5072656;28;9021;-75
2022/05/26 01:09:28;;;;;;;;;1.50;1.00;;;;;;;;5069114;28;8898;-74
2022/05/26 01:11:56;;;;;;;;;0.75;0.75;;;;;;;;5053974;28;8878;-75
2022/05/26 01:14:28;;;;;;;;;2.50;1.75;;;;;;;;5071187;28;9674;-75
2022/05/26 01:17:07;;;;;;;;;2.00;0.00;;;;;;;;5072311;28;8854;-75
2022/05/26 01:20:10;;;;;;;;;1.00;1.00;;;;;;;;5055065;28;8861;-74
2022/05/26 01:23:15;;;;;;;;;0.75;0.75;;;;;;;;5067852;28;8886;-74
2022/05/26 01:26:29;;;;;;;;;0.75;0.75;;;;;;;;5019058;28;8890;-73
2022/05/26 01:29:30;;;;;;;;;0.75;0.75;;;;;;;;4995200;28;8874;-74
2022/05/26 01:32:07;;;;;;;;;1.00;1.00;;;;;;;;5071408;28;8805;-74
2022/05/26 01:34:42;;;;;;;;;0.00;0.00;;;;;;;;5073848;28;8908;-74
2022/05/26 01:37:19;;;;;;;;;0.00;0.00;;;;;;;;5047171;28;8862;-73
2022/05/26 01:39:56;;;;;;;;;1.00;1.00;;;;;;;;5075332;28;9679;-75
2022/05/26 01:42:29;;;;;;;;;0.00;0.00;;;;;;;;5077609;28;8900;-74
2022/05/26 01:45:04;;;;;;;;;2.00;2.00;;;;;;;;5075381;28;8874;-74
2022/05/26 01:47:43;;;;;;;;;1.00;1.00;;;;;;;;5071496;28;8895;-78
2022/05/26 01:50:22;;;;;;;;;1.25;1.25;;;;;;;;5052937;28;8925;-75
2022/05/26 01:52:57;;;;;;;;;1.00;1.00;;;;;;;;5077517;28;8838;-73
2022/05/26 01:55:28;;;;;;;;;3.25;2.00;;;;;;;;5079548;28;8905;-74
2022/05/26 01:57:59;;;;;;;;;3.00;1.75;;;;;;;;5078951;28;8874;-75
2022/05/26 02:00:27;;;;;;;;;2.00;2.00;;;;;;;;5073488;28;9419;-75
2022/05/26 02:03:06;;;;;;;;;0.00;0.00;;;;;;;;5059766;28;8857;-74
2022/05/26 02:05:38;;;;;;;;;0.50;0.50;;;;;;;;5071264;28;8866;-74
2022/05/26 02:08:09;;;;;;;;;1.00;1.00;;;;;;;;5081007;28;8858;-73
2022/05/26 02:10:39;;;;;;;;;3.00;1.00;;;;;;;;5054532;28;8912;-74
2022/05/26 02:13:09;;;;;;;;;1.00;1.00;;;;;;;;5075613;28;8881;-74
2022/05/26 02:15:39;;;;;;;;;1.00;1.00;;;;;;;;5075402;28;8874;-73
2022/05/26 02:18:11;;;;;;;;;1.25;0.75;;;;;;;;5057293;28;8870;-74
2022/05/26 02:20:43;;;;;;;;;1.75;1.75;;;;;;;;5052924;28;8917;-75
2022/05/26 02:23:17;;;;;;;;;1.75;1.75;;;;;;;;5070734;28;8896;-75
2022/05/26 02:25:45;;;;;;;;;2.00;2.00;;;;;;;;5077789;28;8882;-76
2022/05/26 02:28:12;;;;;;;;;2.25;2.25;;;;;;;;5057092;28;8850;-74
2022/05/26 02:30:42;;;;;;;;;1.25;1.25;;;;;;;;5075772;28;8830;-74
2022/05/26 02:33:14;;;;;;;;;1.75;1.75;;;;;;;;5077329;28;8892;-74
2022/05/26 02:35:43;;;;;;;;;1.75;1.75;;;;;;;;5072933;28;8983;-74
2022/05/26 02:38:13;;;;;;;;;1.00;1.00;;;;;;;;5080306;28;8870;-73
2022/05/26 02:40:41;;;;;;;;;2.00;2.00;;;;;;;;5073588;28;8852;-75
2022/05/26 02:43:11;;;;;;;;;3.25;2.00;;;;;;;;5060314;28;8888;-76
2022/05/26 02:45:46;;;;;;;;;3.25;1.75;;;;;;;;5077110;28;8850;-74
2022/05/26 02:48:24;;;;;;;;;1.50;1.00;;;;;;;;5076207;28;8888;-74
2022/05/26 02:50:56;;;;;;;;;1.00;1.00;;;;;;;;5074387;28;8877;-75
2022/05/26 02:53:32;;;;;;;;;1.00;1.00;;;;;;;;5052649;28;8912;-74
2022/05/26 02:56:11;;;;;;;;;1.00;1.00;;;;;;;;5075792;28;8902;-78
2022/05/26 02:58:42;;;;;;;;;3.75;2.00;;;;;;;;5059514;28;8851;-73
2022/05/26 03:01:15;;;;;;;;;2.00;2.00;;;;;;;;5073686;28;8834;-74
2022/05/26 03:03:48;;;;;;;;;2.00;2.00;;;;;;;;5071682;28;8875;-73
2022/05/26 03:06:20;;;;;;;;;0.50;0.50;;;;;;;;5071022;28;8860;-73
2022/05/26 03:08:48;;;;;;;;;1.50;1.50;;;;;;;;5072216;28;8971;-75
2022/05/26 03:11:21;;;;;;;;;1.00;1.00;;;;;;;;5075452;28;8895;-75
2022/05/26 03:13:50;;;;;;;;;1.00;1.00;;;;;;;;5071687;28;8864;-76
2022/05/26 03:16:18;;;;;;;;;1.50;1.50;;;;;;;;5077173;28;8848;-74
2022/05/26 03:18:47;;;;;;;;;0.75;0.75;;;;;;;;5074766;28;8926;-73
2022/05/26 03:21:15;;;;;;;;;1.00;1.00;;;;;;;;5052615;28;9867;-74
2022/05/26 03:23:42;;;;;;;;;1.00;1.00;;;;;;;;5072157;28;8882;-74
2022/05/26 03:26:10;;;;;;;;;2.00;2.00;;;;;;;;5076197;28;8912;-76
2022/05/26 03:28:37;;;;;;;;;4.00;2.00;;;;;;;;5074852;28;9608;-75
2022/05/26 03:31:09;;;;;;;;;1.00;1.00;;;;;;;;5070306;28;8803;-78
2022/05/26 03:41:54;;;;;;;;;2.50;2.00;;;;;;;;5069515;28;8841;-74
2022/05/26 03:44:24;;;;;;;;;1.25;1.00;;;;;;;;5077954;28;8890;-77
2022/05/26 03:46:52;;;;;;;;;1.00;1.00;;;;;;;;5067729;28;8900;-77
2022/05/26 03:49:19;;;;;;;;;0.00;0.00;;;;;;;;5068522;28;8880;-75
2022/05/26 03:51:48;;;;;;;;;4.75;2.00;;;;;;;;5077622;28;8885;-78
2022/05/26 03:54:16;;;;;;;;;1.25;1.25;;;;;;;;5071312;28;8995;-81
2022/05/26 03:56:43;;;;;;;;;1.75;1.75;;;;;;;;5073880;28;8893;-75
2022/05/26 03:59:10;;;;;;;;;1.00;1.00;;;;;;;;5074049;28;8940;-74
2022/05/26 04:01:38;;;;;;;;;1.00;1.00;;;;;;;;5054911;28;8801;-75
2022/05/26 04:04:05;;;;;;;;;2.75;1.00;;;;;;;;5054582;28;8873;-76
2022/05/26 04:06:32;;;;;;;;;3.50;1.75;;;;;;;;5071609;28;8880;-76
2022/05/26 04:09:02;;;;;;;;;2.00;2.00;;;;;;;;5055071;28;8856;-74
2022/05/26 04:11:29;;;;;;;;;1.75;1.75;;;;;;;;5075959;28;8893;-80
2022/05/26 04:13:56;;;;;;;;;3.25;2.75;;;;;;;;5071197;28;8904;-77
2022/05/26 04:16:24;;;;;;;;;3.50;2.00;;;;;;;;5074793;28;8881;-75
2022/05/26 04:18:53;;;;;;;;;1.00;1.00;;;;;;;;5056383;28;10114;-75
2022/05/26 04:21:21;;;;;;;;;2.00;2.00;;;;;;;;5074849;28;8852;-75
2022/05/26 04:23:48;;;;;;;;;2.50;2.25;;;;;;;;5074102;28;8870;-76
2022/05/26 04:26:18;;;;;;;;;2.75;2.75;;;;;;;;5067932;28;9933;-75
2022/05/26 04:28:45;;;;;;;;;2.25;2.25;;;;;;;;5072253;28;8886;-75
2022/05/26 04:31:12;;;;;;;;;2.00;2.00;;;;;;;;5072401;28;8827;-75
2022/05/26 04:33:40;;;;;;;;;3.50;3.25;;;;;;;;5070912;28;8858;-75
2022/05/26 04:36:08;;;;;;;;;3.00;3.00;;;;;;;;5050921;28;8848;-75
2022/05/26 04:38:36;;;;;;;;;3.25;3.25;;;;;;;;5063431;28;8848;-75
2022/05/26 04:41:06;;;;;;;;;1.00;1.00;;;;;;;;5070647;28;8902;-78
2022/05/26 04:43:36;;;;;;;;;4.00;3.00;;;;;;;;5069281;28;8883;-75
2022/05/26 04:46:03;;;;;;;;;2.75;2.25;;;;;;;;5058593;28;8863;-74
2022/05/26 04:48:31;;;;;;;;;2.75;2.75;;;;;;;;5059210;28;9783;-77
2022/05/26 04:50:58;;;;;;;;;3.00;3.00;;;;;;;;5017173;28;8994;-74
2022/05/26 04:53:25;;;;;;;;;2.75;2.75;;;;;;;;5065997;28;8876;-75
2022/05/26 04:55:56;;;;;;;;;4.50;4.25;;;;;;;;5057304;28;8897;-75
2022/05/26 04:58:23;;;;;;;;;4.25;4.25;;;;;;;;5057958;28;8877;-76
2022/05/26 05:00:52;;;;;;;;;3.00;3.00;;;;;;;;5063800;28;8834;-77
2022/05/26 05:03:20;;;;;;;;;3.75;3.75;;;;;;;;5060928;28;8868;-75
2022/05/26 05:05:48;;;;;;;;;2.75;2.75;;;;;;;;5044195;28;8881;-76
2022/05/26 05:08:15;;;;;;;;;2.00;2.00;;;;;;;;5060476;28;8872;-75
2022/05/26 05:10:42;;;;;;;;;4.00;4.00;;;;;;;;5059929;28;8890;-74
2022/05/26 05:13:11;;;;;;;;;4.50;4.50;;;;;;;;5059766;28;8927;-75
2022/05/26 05:15:43;;;;;;;;;5.25;4.50;;;;;;;;5062725;28;8893;-75
2022/05/26 05:18:12;;;;;;;;;5.00;5.00;;;;;;;;5057916;28;8860;-74
2022/05/26 05:20:41;;;;;;;;;4.50;4.00;;;;;;;;5059070;28;8862;-75
2022/05/26 05:23:11;;;;;;;;;3.00;3.00;;;;;;;;5060575;28;8873;-75
2022/05/26 05:25:43;;;;;;;;;3.75;3.75;;;;;;;;5059997;28;8875;-74
2022/05/26 05:28:14;;;;;;;;;4.00;4.00;;;;;;;;5055100;28;8904;-75
2022/05/26 05:30:44;;;;;;;;;4.25;4.25;;;;;;;;5057449;28;8826;-76
2022/05/26 05:33:16;;;;;;;;;4.00;4.00;;;;;;;;5059141;28;8877;-75
2022/05/26 05:35:47;;;;;;;;;3.75;3.00;;;;;;;;5060328;28;8862;-75
2022/05/26 05:38:15;;;;;;;;;4.50;1.00;;;;;;;;5062976;28;8911;-76
2022/05/26 05:40:43;;;;;;;;;8.50;5.00;;;;;;;;5057103;28;9613;-75
2022/05/26 05:43:10;;;;;;;;;4.00;4.00;;;;;;;;5066131;28;8860;-77
2022/05/26 05:45:39;;;;;;;;;3.00;2.25;;;;;;;;5039006;28;8876;-76
2022/05/26 05:48:08;;;;;;;;;6.25;6.25;;;;;;;;5057168;28;8860;-75
2022/05/26 05:50:37;;;;;;;;;3.00;3.00;;;;;;;;5057322;28;8908;-74
2022/05/26 05:53:05;;;;;;;;;3.50;3.50;;;;;;;;5052081;28;9014;-75
2022/05/26 05:55:32;;;;;;;;;4.75;4.75;;;;;;;;5055569;28;8895;-74
2022/05/26 05:58:00;;;;;;;;;6.00;4.50;;;;;;;;5054530;28;9010;-75
2022/05/26 06:00:27;;;;;;;;;3.25;3.25;;;;;;;;5057055;28;8791;-76
2022/05/26 06:02:55;;;;;;;;;3.75;3.75;;;;;;;;5055687;28;8860;-74
2022/05/26 06:05:22;;;;;;;;;4.00;4.00;;;;;;;;5058485;28;8931;-75
2022/05/26 06:07:51;;;;;;;;;4.00;4.00;;;;;;;;5044450;28;8890;-76
2022/05/26 06:10:18;;;;;;;;;4.50;3.25;;;;;;;;5027758;28;9338;-75
2022/05/26 06:12:46;;;;;;;;;2.75;2.75;;;;;;;;5050405;28;9035;-75
2022/05/26 06:15:14;;;;;;;;;3.25;3.25;;;;;;;;5029501;28;8871;-74
2022/05/26 06:17:42;;;;;;;;;3.00;3.00;;;;;;;;5032106;28;8893;-77
2022/05/26 06:20:11;;;;;;;;;5.00;4.00;;;;;;;;5040415;28;9689;-74
2022/05/26 06:22:42;;;;;;;;;3.75;3.25;;;;;;;;5051046;28;8872;-78
2022/05/26 06:25:15;;;;;;;;;5.50;3.75;;;;;;;;5052444;28;8862;-80
2022/05/26 06:30:32;;;;;;;;;5.75;4.00;;;;;;;;4997531;28;8848;-79
2022/05/26 06:38:33;;;;;;;;;3.50;3.50;;;;;;;;5054570;28;8841;-84
2022/05/26 06:42:05;;;;;;;;;3.50;3.25;;;;;;;;5034317;28;8983;-83
2022/05/26 06:43:51;;;;;;;;;3.50;3.50;;;;;;;;5060389;28;8913;-78
2022/05/26 06:46:18;;;;;;;;;2.50;2.50;;;;;;;;5073519;28;8951;-79
2022/05/26 06:48:46;;;;;;;;;3.25;3.00;;;;;;;;5071072;28;8879;-81
2022/05/26 06:51:14;;;;;;;;;5.00;5.00;;;;;;;;5074277;28;8872;-82
2022/05/26 06:53:41;;;;;;;;;3.00;3.00;;;;;;;;5068920;28;8869;-84
2022/05/26 06:56:10;;;;;;;;;3.50;3.50;;;;;;;;5053737;28;8871;-81
2022/05/26 06:58:38;;;;;;;;;6.00;3.00;;;;;;;;5074202;28;8852;-85
2022/05/26 07:01:06;;;;;;;;;3.00;3.00;;;;;;;;5071615;28;8853;-80
2022/05/26 07:03:34;;;;;;;;;2.00;2.00;;;;;;;;5075603;28;8902;-81
2022/05/26 07:06:02;;;;;;;;;2.50;2.50;;;;;;;;5075797;28;8878;-80
2022/05/26 07:08:29;;;;;;;;;3.00;1.50;;;;;;;;5073610;28;8916;-80
2022/05/26 07:11:00;;;;;;;;;4.25;2.00;;;;;;;;5071287;28;8874;-82
2022/05/26 07:13:29;;;;;;;;;3.50;2.00;;;;;;;;5072746;28;8849;-76
2022/05/26 07:15:57;;;;;;;;;1.75;1.75;;;;;;;;5068451;28;8995;-75
2022/05/26 07:18:24;;;;;;;;;2.00;2.00;;;;;;;;5073499;28;10403;-75
2022/05/26 07:20:52;;;;;;;;;3.00;2.00;;;;;;;;5068432;28;8856;-74
2022/05/26 07:23:19;;;;;;;;;2.25;2.25;;;;;;;;5073405;28;9680;-74
2022/05/26 07:25:47;;;;;;;;;1.50;1.25;;;;;;;;5076657;28;8884;-76
2022/05/26 07:28:14;;;;;;;;;1.75;1.75;;;;;;;;5071664;28;9676;-74
2022/05/26 07:30:44;;;;;;;;;1.50;1.50;;;;;;;;5069270;28;8828;-76
2022/05/26 07:33:11;;;;;;;;;1.00;0.00;;;;;;;;5072855;28;8866;-73
2022/05/26 07:35:39;;;;;;;;;1.75;1.75;;;;;;;;5071975;28;9000;-74
2022/05/26 07:43:38;;;;;;;;;1.00;1.00;;;;;;;;5076630;28;8835;-75
2022/05/26 07:46:07;;;;;;;;;1.50;1.50;;;;;;;;5069549;28;8964;-77
2022/05/26 07:48:35;;;;;;;;;2.00;2.00;;;;;;;;5064851;28;8892;-74
2022/05/26 07:51:02;;;;;;;;;2.75;1.25;;;;;;;;5070900;28;8856;-76
2022/05/26 07:53:31;;;;;;;;;3.00;1.00;;;;;;;;5073898;28;8862;-75
2022/05/26 07:56:00;;;;;;;;;0.75;0.75;;;;;;;;5076781;28;9651;-75
2022/05/26 07:58:27;;;;;;;;;1.00;1.00;;;;;;;;5066973;28;8881;-82
2022/05/26 08:00:55;;;;;;;;;0.75;0.75;;;;;;;;5051132;28;8812;-77
2022/05/26 08:03:23;;;;;;;;;1.00;1.00;;;;;;;;5074583;28;8874;-76
2022/05/26 08:05:51;;;;;;;;;0.75;0.75;;;;;;;;5069232;28;8860;-76
2022/05/26 08:08:18;;;;;;;;;1.00;1.00;;;;;;;;5070275;28;8866;-76
2022/05/26 08:10:46;;;;;;;;;0.75;0.75;;;;;;;;5072370;28;8894;-76
2022/05/26 08:13:13;;;;;;;;;1.75;1.75;;;;;;;;5072072;28;9638;-77
2022/05/26 08:15:42;;;;;;;;;1.00;1.00;;;;;;;;5076527;28;8916;-76
2022/05/26 08:18:09;;;;;;;;;6.75;4.00;;;;;;;;5073227;28;8980;-77
2022/05/26 08:20:38;;;;;;;;;2.25;2.25;;;;;;;;5075112;28;8846;-77
2022/05/26 08:23:06;;;;;;;;;12.00;12.00;;;;;;;;5070668;28;8882;-76
2022/05/26 08:25:34;;;;;;;;;0.00;0.00;;;;;;;;5075482;28;8874;-77
2022/05/26 08:28:01;;;;;;;;;1.00;1.00;;;;;;;;5075609;28;8896;-77
2022/05/26 08:30:28;;;;;;;;;13.75;10.50;;;;;;;;5075495;28;8824;-78
2022/05/26 08:32:56;;;;;;;;;12.25;9.75;;;;;;;;5076429;28;8894;-76
2022/05/26 08:35:24;;;;;;;;;6.75;5.50;;;;;;;;5073477;28;9709;-78
2022/05/26 08:37:53;;;;;;;;;5.00;5.00;;;;;;;;5051471;28;8850;-76
2022/05/26 08:40:31;;;;;;;;;2.00;2.00;;;;;;;;5071857;28;8870;-76
2022/05/26 08:42:59;;;;;;;;;2.00;2.00;;;;;;;;5048855;28;8858;-77
2022/05/26 08:45:27;;;;;;;;;1.00;1.00;;;;;;;;5054934;28;8886;-77
2022/05/26 08:47:54;;;;;;;;;1.00;1.00;;;;;;;;5076333;28;8965;-76
2022/05/26 08:50:25;;;;;;;;;1.75;1.50;;;;;;;;5073347;28;8841;-76
2022/05/26 08:52:58;;;;;;;;;2.00;2.00;;;;;;;;5074224;28;8976;-76
2022/05/26 08:55:29;;;;;;;;;2.50;2.00;;;;;;;;5071434;28;8880;-74
2022/05/26 08:58:04;;;;;;;;;2.00;1.00;;;;;;;;5075237;28;8892;-75
2022/05/26 09:00:32;;;;;;;;;3.00;2.00;;;;;;;;5076756;28;8787;-76
2022/05/26 09:03:00;;;;;;;;;1.00;1.00;;;;;;;;5077215;28;8892;-77
2022/05/26 09:05:34;;;;;;;;;2.50;1.00;;;;;;;;5078617;28;8854;-77
2022/05/26 09:13:41;;;;;;;;;2.00;2.00;;;;;;;;5077452;28;8846;-76
2022/05/26 09:16:09;;;;;;;;;3.00;2.00;;;;;;;;5072676;28;8858;-75
2022/05/26 09:18:37;;;;;;;;;1.00;1.00;;;;;;;;5071307;28;8896;-76
2022/05/26 09:21:22;;;;;;;;;2.75;2.00;;;;;;;;5076263;28;8860;-76
2022/05/26 09:23:53;;;;;;;;;2.50;1.00;;;;;;;;5075330;28;8888;-77
2022/05/26 09:26:29;;;;;;;;;1.00;1.00;;;;;;;;5075239;28;8932;-75
2022/05/26 09:29:08;;;;;;;;;1.50;1.50;;;;;;;;5073388;28;8953;-77
2022/05/26 09:31:37;;;;;;;;;1.25;1.25;;;;;;;;5077720;28;8949;-78
2022/05/26 09:34:09;;;;;;;;;1.75;1.75;;;;;;;;5075655;28;8868;-77
2022/05/26 09:36:43;;;;;;;;;1.00;1.00;;;;;;;;5075718;28;8921;-75
2022/05/26 09:39:13;;;;;;;;;1.75;1.75;;;;;;;;5072174;28;8979;-77
2022/05/26 09:41:42;;;;;;;;;1.25;1.25;;;;;;;;5069790;28;8874;-79
2022/05/26 09:44:30;;;;;;;;;1.00;1.00;;;;;;;;5072899;28;8866;-78
2022/05/26 09:46:59;;;;;;;;;3.00;3.00;;;;;;;;5074585;28;8890;-82
2022/05/26 09:49:37;;;;;;;;;1.80;1.80;;;;;;;;5075979;28;8853;-83
2022/05/26 09:52:12;;;;;;;;;6.00;3.00;;;;;;;;5070513;28;8852;-77
2022/05/26 09:54:42;;;;;;;;;1.00;1.00;;;;;;;;5079563;28;8873;-78
2022/05/26 09:57:15;;;;;;;;;1.00;1.00;;;;;;;;5080254;28;8963;-79
2022/05/26 09:59:44;;;;;;;;;2.00;2.00;;;;;;;;5081081;28;8883;-82
2022/05/26 10:02:15;;;;;;;;;2.00;2.00;;;;;;;;5056360;28;8822;-83
2022/05/26 10:05:03;;;;;;;;;3.00;3.00;;;;;;;;5055894;28;8852;-83
2022/05/26 10:07:57;;;;;;;;;3.40;2.00;;;;;;;;5076302;28;8846;-85
2022/05/26 10:10:30;;;;;;;;;2.00;2.00;;;;;;;;5073977;28;8882;-78
2022/05/26 10:13:17;;;;;;;;;3.20;3.20;;;;;;;;5074275;28;8874;-80
2022/05/26 10:15:53;;;;;;;;;1.80;1.20;;;;;;;;5072805;28;9632;-83
2022/05/26 10:18:45;;;;;;;;;1.00;1.00;;;;;;;;5070073;28;8859;-77
2022/05/26 10:21:44;;;;;;;;;3.00;3.00;;;;;;;;5049466;28;8848;-78
2022/05/26 10:24:41;;;;;;;;;1.40;1.40;;;;;;;;5073036;28;8884;-79
2022/05/26 10:27:19;;;;;;;;;2.00;2.00;;;;;;;;5074312;28;8888;-76
2022/05/26 10:30:01;;;;;;;;;3.00;2.00;;;;;;;;5073157;28;8868;-78
2022/05/26 10:32:37;;;;;;;;;2.00;2.00;;;;;;;;5072988;28;8821;-80
2022/05/26 10:35:19;;;;;;;;;2.00;2.00;;;;;;;;5075003;28;8900;-81
2022/05/26 10:38:01;;;;;;;;;2.60;1.40;;;;;;;;5052182;28;8916;-82
2022/05/26 10:40:33;;;;;;;;;1.60;1.60;;;;;;;;5072112;28;8860;-82
2022/05/26 10:43:07;;;;;;;;;2.80;1.20;;;;;;;;5074707;28;8843;-79
2022/05/26 10:45:38;;;;;;;;;4.00;3.00;;;;;;;;5075511;28;8842;-79
2022/05/26 10:48:09;;;;;;;;;3.00;3.00;;;;;;;;5077820;28;8893;-79
2022/05/26 10:50:44;;;;;;;;;3.80;2.00;;;;;;;;5084816;28;8965;-79
2022/05/26 10:53:16;;;;;;;;;3.00;3.00;;;;;;;;5077642;28;8886;-77
2022/05/26 10:55:51;;;;;;;;;3.00;3.00;;;;;;;;5081794;28;8874;-79
2022/05/26 10:58:24;;;;;;;;;2.40;2.20;;;;;;;;5076962;28;8878;-79
2022/05/26 11:00:55;;;;;;;;;3.60;3.00;;;;;;;;5073394;28;9288;-78
2022/05/26 11:03:29;;;;;;;;;3.00;1.80;;;;;;;;5077449;28;8845;-80
2022/05/26 11:06:03;;;;;;;;;3.00;3.00;;;;;;;;5075896;28;8978;-80
2022/05/26 11:08:40;;;;;;;;;3.00;1.60;;;;;;;;5079540;28;8853;-79
2022/05/26 11:11:15;;;;;;;;;2.60;2.60;;;;;;;;5080076;28;8938;-83
2022/05/26 11:13:52;;;;;;;;;2.20;2.20;;;;;;;;5072601;28;9645;-83
2022/05/26 11:19:32;;;;;;;;;4.80;2.80;;;;;;;;5070052;28;9191;-84
2022/05/26 11:22:00;;;;;;;;;3.80;2.00;;;;;;;;5058790;28;8870;-80
2022/05/26 11:24:28;;;;;;;;;2.80;2.80;;;;;;;;5066122;28;8890;-79
2022/05/26 11:26:58;;;;;;;;;1.60;1.60;;;;;;;;5064147;28;8989;-78
2022/05/26 11:29:29;;;;;;;;;3.20;3.00;;;;;;;;5069518;28;9007;-79
2022/05/26 11:37:57;;;;;;;;;2.00;2.00;;;;;;;;5073291;28;8866;-79
2022/05/26 11:40:31;;;;;;;;;2.00;2.00;;;;;;;;5068836;28;8884;-79
2022/05/26 11:42:58;;;;;;;;;3.20;3.20;;;;;;;;5077875;28;8850;-77
2022/05/26 11:45:30;;;;;;;;;3.20;3.20;;;;;;;;5077280;28;9850;-79
2022/05/26 11:47:59;;;;;;;;;3.00;3.00;;;;;;;;5078662;28;8891;-78
2022/05/26 11:50:31;;;;;;;;;1.40;1.40;;;;;;;;5067623;28;8953;-77
2022/05/26 11:53:13;;;;;;;;;3.40;3.40;;;;;;;;5074920;28;8999;-78
2022/05/26 11:55:50;;;;;;;;;2.60;2.60;;;;;;;;5074909;28;8850;-79
2022/05/26 11:58:27;;;;;;;;;2.60;2.60;;;;;;;;5075521;28;8878;-78
2022/05/26 12:01:12;;;;;;;;;3.00;3.00;;;;;;;;5080423;28;8927;-79
2022/05/26 12:03:50;;;;;;;;;3.20;3.20;;;;;;;;5067136;28;8880;-79
2022/05/26 12:06:19;;;;;;;;;3.00;3.00;;;;;;;;5066407;28;8929;-79
2022/05/26 12:09:00;;;;;;;;;4.40;4.00;;;;;;;;5073802;28;8837;-79
2022/05/26 12:11:53;;;;;;;;;2.00;2.00;;;;;;;;5056365;28;8950;-79
2022/05/26 12:14:23;;;;;;;;;2.60;2.00;;;;;;;;5082557;28;8892;-80
2022/05/26 12:16:52;;;;;;;;;3.40;3.40;;;;;;;;5078228;28;8882;-79
2022/05/26 12:19:41;;;;;;;;;2.20;2.20;;;;;;;;5068020;28;8920;-77
2022/05/26 12:22:23;;;;;;;;;3.20;3.20;;;;;;;;5072044;28;8868;-77
2022/05/26 12:25:01;;;;;;;;;4.60;4.00;;;;;;;;5075867;28;9014;-78
2022/05/26 12:27:55;;;;;;;;;3.40;3.40;;;;;;;;5063248;28;8868;-78
2022/05/26 12:30:38;;;;;;;;;4.00;4.00;;;;;;;;5056587;28;8948;-80
2022/05/26 12:33:33;;;;;;;;;3.00;3.00;;;;;;;;5067577;28;8878;-78
2022/05/26 12:36:08;;;;;;;;;3.00;3.00;;;;;;;;5077534;28;8854;-80
2022/05/26 12:38:49;;;;;;;;;3.80;3.80;;;;;;;;5067016;28;8846;-79
2022/05/26 12:41:22;;;;;;;;;3.80;3.80;;;;;;;;5074127;28;8882;-75
2022/05/26 12:44:21;;;;;;;;;4.20;3.20;;;;;;;;5072811;28;8850;-78
2022/05/26 12:47:03;;;;;;;;;6.00;5.00;;;;;;;;5050892;28;9965;-79
2022/05/26 12:49:47;;;;;;;;;4.60;4.60;;;;;;;;5065178;28;8857;-79
2022/05/26 12:52:19;;;;;;;;;5.40;5.40;;;;;;;;5067186;28;9544;-80
2022/05/26 12:54:51;;;;;;;;;10.40;8.40;;;;;;;;5076789;28;8858;-81
2022/05/26 12:57:23;;;;;;;;;7.20;7.20;;;;;;;;5074389;28;8874;-79
2022/05/26 12:59:50;;;;;;;;;6.40;6.40;;;;;;;;5076116;28;8872;-79
2022/05/26 13:02:17;;;;;;;;;4.40;4.40;;;;;;;;5076604;28;8911;-84
2022/05/26 13:04:47;;;;;;;;;5.00;5.00;;;;;;;;5074305;28;8894;-81
2022/05/26 13:07:16;;;;;;;;;5.00;5.00;;;;;;;;5070592;28;9709;-81
2022/05/26 13:09:45;;;;;;;;;8.00;7.20;;;;;;;;5074248;28;8874;-83
2022/05/26 13:12:26;;;;;;;;;7.00;7.00;;;;;;;;5051557;28;8850;-81
2022/05/26 13:14:55;;;;;;;;;9.40;7.80;;;;;;;;5075260;28;8971;-82
2022/05/26 13:17:24;;;;;;;;;9.00;8.60;;;;;;;;5071401;28;8889;-81
2022/05/26 13:19:55;;;;;;;;;6.40;6.40;;;;;;;;5068693;28;8888;-78
2022/05/26 13:22:30;;;;;;;;;7.00;7.00;;;;;;;;5073411;28;8846;-78
2022/05/26 13:24:59;;;;;;;;;9.00;9.00;;;;;;;;5074709;28;8917;-81
2022/05/26 13:27:28;;;;;;;;;5.80;5.80;;;;;;;;5069668;28;8877;-83
2022/05/26 13:33:07;;;;;;;;;5.20;5.20;;;;;;;;5073019;28;9017;-76
2022/05/26 13:35:31;;;;;;;;;11.20;9.40;;;;;;;;5073530;28;8858;-81
2022/05/26 13:37:58;;;;;;;;;8.80;8.80;;;;;;;;5081115;28;8879;-81
2022/05/26 13:40:28;;;;;;;;;9.00;9.00;;;;;;;;5078026;28;8838;-84
2022/05/26 13:42:56;;;;;;;;;10.80;9.20;;;;;;;;5075658;28;8873;-77
2022/05/26 13:45:26;;;;;;;;;12.80;9.60;;;;;;;;5063369;28;8875;-79
2022/05/26 13:48:33;;;;;;;;;9.60;9.60;;;;;;;;5077040;28;8834;-80
2022/05/26 13:51:13;;;;;;;;;9.40;9.40;;;;;;;;5064607;28;8987;-79
2022/05/26 13:53:42;;;;;;;;;12.20;10.60;;;;;;;;5066401;28;8826;-75
2022/05/26 13:56:11;;;;;;;;;8.40;8.40;;;;;;;;5071786;28;8914;-79
2022/05/26 13:58:39;;;;;;;;;8.40;6.60;;;;;;;;5072809;28;8883;-79
2022/05/26 14:01:09;;;;;;;;;3.80;3.80;;;;;;;;5072394;28;8961;-79
2022/05/26 14:03:38;;;;;;;;;3.00;3.00;;;;;;;;5080514;28;8872;-80
2022/05/26 14:06:10;;;;;;;;;3.80;2.00;;;;;;;;5078163;28;8854;-77
2022/05/26 14:08:48;;;;;;;;;3.00;3.00;;;;;;;;5067359;28;8876;-82
2022/05/26 14:11:31;;;;;;;;;2.00;2.00;;;;;;;;5071440;28;8862;-80
2022/05/26 14:14:13;;;;;;;;;2.60;2.60;;;;;;;;5064006;28;8861;-81
2022/05/26 14:16:41;;;;;;;;;3.40;2.00;;;;;;;;5066795;28;8864;-78
2022/05/26 14:19:08;;;;;;;;;3.20;2.40;;;;;;;;5077784;28;9379;-82
2022/05/26 14:21:37;;;;;;;;;2.80;2.80;;;;;;;;5072485;28;8914;-83
2022/05/26 14:24:07;;;;;;;;;1.00;1.00;;;;;;;;5076250;28;8986;-83
2022/05/26 14:26:39;;;;;;;;;2.00;2.00;;;;;;;;5062878;28;8978;-82
2022/05/26 14:29:25;;;;;;;;;1.00;1.00;;;;;;;;5080242;28;8879;-82
2022/05/26 14:31:59;;;;;;;;;1.00;1.00;;;;;;;;5066379;28;9473;-78
2022/05/26 14:34:33;;;;;;;;;1.00;1.00;;;;;;;;5070128;28;8894;-82
2022/05/26 14:37:01;;;;;;;;;2.80;2.80;;;;;;;;5071900;28;8901;-82
2022/05/26 14:39:29;;;;;;;;;3.40;2.00;;;;;;;;5076550;28;8876;-79
2022/05/26 14:41:58;;;;;;;;;1.00;1.00;;;;;;;;5074096;28;8882;-77
2022/05/26 14:44:25;;;;;;;;;2.00;2.00;;;;;;;;5082383;28;9000;-76
2022/05/26 14:46:53;;;;;;;;;2.20;1.00;;;;;;;;5070610;28;8873;-80
2022/05/26 14:49:21;;;;;;;;;3.00;3.00;;;;;;;;5068850;28;8872;-78
2022/05/26 14:51:49;;;;;;;;;1.80;1.80;;;;;;;;5072818;28;8893;-72
2022/05/26 14:57:04;;;;;;;;;2.00;1.00;;;;;;;;5071106;28;8870;-74
2022/05/26 14:59:32;;;;;;;;;1.00;1.00;;;;;;;;5075927;28;8886;-75
2022/05/26 15:01:59;;;;;;;;;1.00;1.00;;;;;;;;5074702;28;8994;-80
2022/05/26 15:04:27;;;;;;;;;4.20;3.00;;;;;;;;5073090;28;9630;-77
2022/05/26 15:06:58;;;;;;;;;2.00;2.00;;;;;;;;5075842;28;8850;-74
2022/05/26 15:09:29;;;;;;;;;3.00;3.00;;;;;;;;5081351;28;8890;-77
2022/05/26 15:11:59;;;;;;;;;2.40;1.80;;;;;;;;5075153;28;8885;-78
2022/05/26 15:14:28;;;;;;;;;1.00;1.00;;;;;;;;5078223;28;8890;-79
2022/05/26 15:16:58;;;;;;;;;1.20;1.20;;;;;;;;5051048;28;9005;-79
2022/05/26 15:19:30;;;;;;;;;2.00;2.00;;;;;;;;5069518;28;9417;-77
2022/05/26 15:21:58;;;;;;;;;1.40;1.40;;;;;;;;5052224;28;8894;-79
2022/05/26 15:24:27;;;;;;;;;0.20;0.20;;;;;;;;5079530;28;8859;-76
2022/05/26 15:26:57;;;;;;;;;1.00;1.00;;;;;;;;5075755;28;8908;-77
2022/05/26 15:29:25;;;;;;;;;1.00;1.00;;;;;;;;5081540;28;8846;-78
2022/05/26 15:31:53;;;;;;;;;2.00;2.00;;;;;;;;5078271;28;9653;-74
2022/05/26 15:34:20;;;;;;;;;2.00;2.00;;;;;;;;5069415;28;8876;-77
2022/05/26 15:36:48;;;;;;;;;1.00;1.00;;;;;;;;5080234;28;8846;-76
2022/05/26 15:39:15;;;;;;;;;1.40;1.40;;;;;;;;5081397;28;8878;-76
2022/05/26 15:41:45;;;;;;;;;2.80;1.00;;;;;;;;5075383;28;8875;-77
2022/05/26 15:44:13;;;;;;;;;2.00;2.00;;;;;;;;5072091;28;8980;-76
2022/05/26 15:46:46;;;;;;;;;0.40;0.40;;;;;;;;5070961;28;8939;-75
2022/05/26 15:49:15;;;;;;;;;1.00;1.00;;;;;;;;5074232;28;8882;-75
2022/05/26 15:51:43;;;;;;;;;2.00;2.00;;;;;;;;5069348;28;8872;-75
2022/05/26 15:54:11;;;;;;;;;2.40;2.40;;;;;;;;5086017;28;8870;-77
2022/05/26 15:56:40;;;;;;;;;2.00;2.00;;;;;;;;5068003;28;8898;-73
2022/05/26 15:59:13;;;;;;;;;1.40;1.40;;;;;;;;5071618;28;8892;-74
2022/05/26 16:01:40;;;;;;;;;3.80;2.00;;;;;;;;5067967;28;9711;-73
2022/05/26 16:04:08;;;;;;;;;3.00;1.00;;;;;;;;5073397;28;8854;-75
2022/05/26 16:06:36;;;;;;;;;2.00;2.00;;;;;;;;5074881;28;8850;-74